createdAt,value
2022-10-09T00:01:10.124Z,2.30
2022-10-09T00:02:15.624Z,2.00
2022-10-09T00:03:17.909Z,2.10
2022-10-09T00:04:19.835Z,2.10
2022-10-09T00:05:23.122Z,2.20
2022-10-09T00:06:28.670Z,2.20
2022-10-09T00:07:30.471Z,2.20
2022-10-09T00:08:33.960Z,2.10
2022-10-09T00:09:35.971Z,2.10
2022-10-09T00:10:43.867Z,2.00
2022-10-09T00:11:45.730Z,2.10
2022-10-09T00:12:47.746Z,2.20
2022-10-09T00:13:50.932Z,2.10
2022-10-09T00:14:52.844Z,1.90
2022-10-09T00:15:54.607Z,1.90
2022-10-09T00:16:58.767Z,2.10
2022-10-09T00:18:00.571Z,2.50
2022-10-09T00:19:02.366Z,2.00
2022-10-09T00:20:04.892Z,2.20
2022-10-09T00:21:20.631Z,2.10
2022-10-09T00:22:22.514Z,2.10
2022-10-09T00:23:24.572Z,2.00
2022-10-09T00:24:26.413Z,2.00
2022-10-09T00:25:28.585Z,1.90
2022-10-09T00:26:30.829Z,2.00
2022-10-09T00:27:32.916Z,2.10
2022-10-09T00:28:38.455Z,2.10
2022-10-09T00:29:40.691Z,1.90
2022-10-09T00:30:42.591Z,2.00
2022-10-09T00:31:46.901Z,2.40
2022-10-09T00:32:49.016Z,1.90
2022-10-09T00:33:51.148Z,1.90
2022-10-09T00:34:52.920Z,2.00
2022-10-09T00:35:54.825Z,1.90
2022-10-09T00:36:58.711Z,2.00
2022-10-09T00:38:00.459Z,2.00
2022-10-09T00:39:02.321Z,2.00
2022-10-09T00:40:04.525Z,2.10
2022-10-09T00:41:07.468Z,2.00
2022-10-09T00:42:13.103Z,2.10
2022-10-09T00:43:18.498Z,2.10
2022-10-09T00:44:53.556Z,2.00
2022-10-09T00:45:56.864Z,1.80
2022-10-09T00:46:59.167Z,1.80
2022-10-09T00:48:04.396Z,1.80
2022-10-09T00:49:20.537Z,2.20
2022-10-09T00:50:26.216Z,1.90
2022-10-09T00:51:29.801Z,2.20
2022-10-09T00:52:32.641Z,2.10
2022-10-09T00:53:34.429Z,2.20
2022-10-09T00:54:38.799Z,2.50
2022-10-09T00:55:43.530Z,2.20
2022-10-09T00:56:45.649Z,2.20
2022-10-09T00:57:48.205Z,2.00
2022-10-09T00:58:53.819Z,2.20
2022-10-09T00:59:55.963Z,2.00
2022-10-09T01:00:57.830Z,1.90
2022-10-09T01:02:01.942Z,2.10
2022-10-09T01:03:04.031Z,2.00
2022-10-09T01:04:05.916Z,2.10
2022-10-09T01:05:10.267Z,2.10
2022-10-09T01:06:53.377Z,2.10
2022-10-09T01:08:09.435Z,2.20
2022-10-09T01:09:15.899Z,2.20
2022-10-09T01:10:30.375Z,2.40
2022-10-09T01:12:09.843Z,1.90
2022-10-09T01:13:16.521Z,1.80
2022-10-09T01:14:25.659Z,1.90
2022-10-09T01:15:40.943Z,2.40
2022-10-09T01:17:06.111Z,2.20
2022-10-09T01:18:16.475Z,1.90
2022-10-09T01:19:57.212Z,2.40
2022-10-09T01:21:24.692Z,2.00
2022-10-09T01:22:50.714Z,2.30
2022-10-09T01:24:08.020Z,2.30
2022-10-09T01:25:55.182Z,1.90
2022-10-09T01:27:17.917Z,2.00
2022-10-09T01:28:22.767Z,1.90
2022-10-09T01:29:31.375Z,2.10
2022-10-09T01:30:34.996Z,2.10
2022-10-09T01:31:41.851Z,2.20
2022-10-09T01:32:48.306Z,2.00
2022-10-09T01:33:51.055Z,2.10
2022-10-09T01:34:54.010Z,2.10
2022-10-09T01:35:57.799Z,2.20
2022-10-09T01:37:00.552Z,2.00
2022-10-09T01:38:03.916Z,2.20
2022-10-09T01:39:12.053Z,2.30
2022-10-09T01:40:16.797Z,2.10
2022-10-09T01:41:20.368Z,2.10
2022-10-09T01:42:25.137Z,2.10
2022-10-09T01:43:26.954Z,2.30
2022-10-09T01:44:30.450Z,2.50
2022-10-09T01:45:41.878Z,2.30
2022-10-09T01:46:44.116Z,2.10
2022-10-09T01:47:46.011Z,2.20
2022-10-09T01:49:00.900Z,2.10
2022-10-09T01:50:13.878Z,2.20
2022-10-09T01:51:17.996Z,2.20
2022-10-09T01:52:41.297Z,2.10
2022-10-09T01:53:44.225Z,2.10
2022-10-09T01:55:07.326Z,2.20
2022-10-09T01:56:19.008Z,2.20
2022-10-09T01:57:34.940Z,2.30
2022-10-09T01:58:58.646Z,2.20
2022-10-09T02:00:03.817Z,2.20
2022-10-09T02:01:17.947Z,2.40
2022-10-09T02:02:21.082Z,2.20
2022-10-09T02:03:26.823Z,2.30
2022-10-09T02:04:30.575Z,2.20
2022-10-09T02:05:33.650Z,2.10
2022-10-09T02:06:39.659Z,2.00
2022-10-09T02:07:43.673Z,2.10
2022-10-09T02:08:49.961Z,2.10
2022-10-09T02:09:53.289Z,2.30
2022-10-09T02:10:57.992Z,2.00
2022-10-09T02:12:06.841Z,1.90
2022-10-09T02:13:09.190Z,2.10
2022-10-09T02:14:11.496Z,2.20
2022-10-09T02:15:13.922Z,2.10
2022-10-09T02:16:24.961Z,2.30
2022-10-09T02:17:43.681Z,2.20
2022-10-09T02:19:08.258Z,2.00
2022-10-09T02:20:20.187Z,2.10
2022-10-09T02:21:28.522Z,2.40
2022-10-09T02:22:31.911Z,2.40
2022-10-09T02:23:36.452Z,2.00
2022-10-09T02:24:39.728Z,2.10
2022-10-09T02:25:42.046Z,2.10
2022-10-09T02:26:44.109Z,2.00
2022-10-09T02:27:46.897Z,2.10
2022-10-09T02:28:49.249Z,2.30
2022-10-09T02:29:54.535Z,2.00
2022-10-09T02:31:02.552Z,1.90
2022-10-09T02:32:04.578Z,2.20
2022-10-09T02:33:06.433Z,2.40
2022-10-09T02:34:11.307Z,2.10
2022-10-09T02:35:13.056Z,2.10
2022-10-09T02:36:14.843Z,2.50
2022-10-09T02:37:17.207Z,2.40
2022-10-09T02:38:19.048Z,2.50
2022-10-09T02:39:21.120Z,2.40
2022-10-09T02:40:23.018Z,2.70
2022-10-09T02:41:25.362Z,2.30
2022-10-09T02:42:27.133Z,2.30
2022-10-09T02:43:29.082Z,2.40
2022-10-09T02:44:31.022Z,2.60
2022-10-09T02:45:34.064Z,2.60
2022-10-09T02:46:37.405Z,2.50
2022-10-09T02:47:39.167Z,2.60
2022-10-09T02:48:44.982Z,2.90
2022-10-09T02:49:46.867Z,2.60
2022-10-09T02:50:48.821Z,2.90
2022-10-09T02:51:50.663Z,2.80
2022-10-09T02:52:52.456Z,2.40
2022-10-09T02:53:55.116Z,2.60
2022-10-09T02:54:57.030Z,2.40
2022-10-09T02:55:59.191Z,2.60
2022-10-09T02:57:01.090Z,2.50
2022-10-09T02:58:04.687Z,2.80
2022-10-09T02:59:07.061Z,2.40
2022-10-09T03:00:09.816Z,2.50
2022-10-09T03:01:12.390Z,2.60
2022-10-09T03:02:14.444Z,2.60
2022-10-09T03:03:16.660Z,2.40
2022-10-09T03:04:18.678Z,2.30
2022-10-09T03:05:20.643Z,2.20
2022-10-09T03:06:24.744Z,2.30
2022-10-09T03:07:26.871Z,2.30
2022-10-09T03:08:28.803Z,2.30
2022-10-09T03:09:33.736Z,2.10
2022-10-09T03:10:39.796Z,2.40
2022-10-09T03:11:41.593Z,2.50
2022-10-09T03:12:43.519Z,2.30
2022-10-09T03:13:46.942Z,2.40
2022-10-09T03:14:49.260Z,2.50
2022-10-09T03:15:51.312Z,2.20
2022-10-09T03:16:53.146Z,2.50
2022-10-09T03:17:54.881Z,2.50
2022-10-09T03:18:57.951Z,2.60
2022-10-09T03:19:59.694Z,2.60
2022-10-09T03:21:05.513Z,2.80
2022-10-09T03:22:07.703Z,2.50
2022-10-09T03:23:09.736Z,2.40
2022-10-09T03:24:11.600Z,2.40
2022-10-09T03:25:14.050Z,2.50
2022-10-09T03:26:18.825Z,2.50
2022-10-09T03:27:20.528Z,2.40
2022-10-09T03:28:22.366Z,2.60
2022-10-09T03:29:24.327Z,2.50
2022-10-09T03:30:26.605Z,2.40
2022-10-09T03:32:50.539Z,2.60
2022-10-09T03:33:52.809Z,2.60
2022-10-09T03:34:54.844Z,2.40
2022-10-09T03:35:56.787Z,2.60
2022-10-09T03:36:59.406Z,2.40
2022-10-09T03:38:01.195Z,2.30
2022-10-09T03:39:03.421Z,2.60
2022-10-09T03:40:06.096Z,2.60
2022-10-09T03:41:08.068Z,2.70
2022-10-09T03:42:10.127Z,2.70
2022-10-09T03:43:12.191Z,2.60
2022-10-09T03:44:13.963Z,2.50
2022-10-09T03:45:16.014Z,2.70
2022-10-09T03:46:19.937Z,2.30
2022-10-09T03:47:21.733Z,2.70
2022-10-09T03:48:23.542Z,2.70
2022-10-09T03:49:25.382Z,2.80
2022-10-09T03:50:27.516Z,2.60
2022-10-09T03:51:29.516Z,2.50
2022-10-09T03:52:31.328Z,2.50
2022-10-09T03:53:33.406Z,2.50
2022-10-09T03:54:35.371Z,2.50
2022-10-09T03:55:37.666Z,2.10
2022-10-09T03:56:39.551Z,2.50
2022-10-09T03:57:41.987Z,2.30
2022-10-09T03:58:43.773Z,2.40
2022-10-09T03:59:45.529Z,2.30
2022-10-09T04:00:52.825Z,2.60
2022-10-09T04:01:54.741Z,2.80
2022-10-09T04:02:56.709Z,2.80
2022-10-09T04:03:58.569Z,2.80
2022-10-09T04:05:00.458Z,2.70
2022-10-09T04:06:02.397Z,2.60
2022-10-09T04:07:05.318Z,2.40
2022-10-09T04:08:07.079Z,3.00
2022-10-09T04:09:09.142Z,2.50
2022-10-09T04:10:11.464Z,2.80
2022-10-09T04:11:13.270Z,3.10
2022-10-09T04:12:15.806Z,2.90
2022-10-09T04:13:17.542Z,2.90
2022-10-09T04:14:19.383Z,3.00
2022-10-09T04:15:23.906Z,2.90
2022-10-09T04:16:25.894Z,3.30
2022-10-09T04:17:28.174Z,3.10
2022-10-09T04:18:30.271Z,2.80
2022-10-09T04:19:32.411Z,2.60
2022-10-09T04:20:34.208Z,2.80
2022-10-09T04:21:36.581Z,3.10
2022-10-09T04:22:38.954Z,2.80
2022-10-09T04:23:40.901Z,2.70
2022-10-09T04:24:42.872Z,2.80
2022-10-09T04:25:45.153Z,2.80
2022-10-09T04:26:46.912Z,2.60
2022-10-09T04:27:48.861Z,2.50
2022-10-09T04:28:51.149Z,2.50
2022-10-09T04:29:53.186Z,2.10
2022-10-09T04:30:57.001Z,2.50
2022-10-09T04:31:59.145Z,2.60
2022-10-09T04:33:07.021Z,2.70
2022-10-09T04:34:11.146Z,3.00
2022-10-09T04:35:13.186Z,2.80
2022-10-09T04:36:15.156Z,2.60
2022-10-09T04:37:17.072Z,2.80
2022-10-09T04:38:20.581Z,2.50
2022-10-09T04:39:22.371Z,2.70
2022-10-09T04:40:24.234Z,2.60
2022-10-09T04:41:26.208Z,2.70
2022-10-09T04:42:28.121Z,2.60
2022-10-09T04:43:30.627Z,2.70
2022-10-09T04:44:32.743Z,2.80
2022-10-09T04:45:39.003Z,2.80
2022-10-09T04:46:42.786Z,2.70
2022-10-09T04:47:44.816Z,3.10
2022-10-09T04:48:52.506Z,2.90
2022-10-09T04:49:54.332Z,2.60
2022-10-09T04:50:56.112Z,3.20
2022-10-09T04:51:57.937Z,3.20
2022-10-09T04:53:00.019Z,3.30
2022-10-09T04:54:02.095Z,3.30
2022-10-09T04:55:04.292Z,3.00
2022-10-09T04:56:09.077Z,3.20
2022-10-09T04:57:11.260Z,3.10
2022-10-09T04:58:13.913Z,3.20
2022-10-09T04:59:15.847Z,3.40
2022-10-09T05:00:18.004Z,3.20
2022-10-09T05:01:22.960Z,2.90
2022-10-09T05:02:24.976Z,3.00
2022-10-09T05:03:27.065Z,2.80
2022-10-09T05:04:29.037Z,3.10
2022-10-09T05:05:31.914Z,3.30
2022-10-09T05:06:33.985Z,3.20
2022-10-09T05:07:35.797Z,3.50
2022-10-09T05:08:38.678Z,4.10
2022-10-09T05:09:40.519Z,3.60
2022-10-09T05:10:42.362Z,3.90
2022-10-09T05:11:44.135Z,3.90
2022-10-09T05:12:46.535Z,4.50
2022-10-09T05:13:54.515Z,3.20
2022-10-09T05:14:56.457Z,3.70
2022-10-09T05:16:05.886Z,3.10
2022-10-09T05:17:14.087Z,3.10
2022-10-09T05:18:16.941Z,3.00
2022-10-09T05:19:18.904Z,3.10
2022-10-09T05:20:21.086Z,2.90
2022-10-09T05:21:23.971Z,3.40
2022-10-09T05:22:25.809Z,3.20
2022-10-09T05:23:27.686Z,3.20
2022-10-09T05:24:29.622Z,3.20
2022-10-09T05:25:32.224Z,3.30
2022-10-09T05:26:36.052Z,3.10
2022-10-09T05:27:38.006Z,3.30
2022-10-09T05:28:39.966Z,3.30
2022-10-09T05:29:41.942Z,3.40
2022-10-09T05:30:44.517Z,3.60
2022-10-09T05:31:49.508Z,3.40
2022-10-09T05:32:51.837Z,3.50
2022-10-09T05:33:55.912Z,3.80
2022-10-09T05:34:57.785Z,3.40
2022-10-09T05:36:01.673Z,3.10
2022-10-09T05:37:03.498Z,2.90
2022-10-09T05:38:05.645Z,3.40
2022-10-09T05:39:07.628Z,3.30
2022-10-09T05:40:09.738Z,3.10
2022-10-09T05:41:48.586Z,3.40
2022-10-09T05:43:33.676Z,2.80
2022-10-09T05:44:38.638Z,3.30
2022-10-09T05:45:40.555Z,3.60
2022-10-09T05:46:42.523Z,3.40
2022-10-09T05:47:45.617Z,3.60
2022-10-09T05:48:55.377Z,4.00
2022-10-09T05:49:57.864Z,3.90
2022-10-09T05:51:21.312Z,4.00
2022-10-09T05:52:23.092Z,4.10
2022-10-09T05:53:25.236Z,3.80
2022-10-09T05:54:28.248Z,4.10
2022-10-09T05:55:30.106Z,4.10
2022-10-09T05:56:36.772Z,3.90
2022-10-09T05:57:38.570Z,3.70
2022-10-09T05:58:41.544Z,3.70
2022-10-09T05:59:44.703Z,3.70
2022-10-09T06:00:46.540Z,4.00
2022-10-09T06:01:51.115Z,3.80
2022-10-09T06:02:53.546Z,3.80
2022-10-09T06:03:57.889Z,3.50
2022-10-09T06:04:59.769Z,3.80
2022-10-09T06:06:06.550Z,3.30
2022-10-09T06:07:10.186Z,3.20
2022-10-09T06:08:11.947Z,3.60
2022-10-09T06:09:16.516Z,3.10
2022-10-09T06:10:18.462Z,3.50
2022-10-09T06:11:24.470Z,3.50
2022-10-09T06:12:26.164Z,3.60
2022-10-09T06:13:27.948Z,3.60
2022-10-09T06:14:29.880Z,3.50
2022-10-09T06:15:31.672Z,3.80
2022-10-09T06:16:36.132Z,3.50
2022-10-09T06:17:37.902Z,3.70
2022-10-09T06:18:45.457Z,3.70
2022-10-09T06:19:50.259Z,3.50
2022-10-09T06:20:54.177Z,3.50
2022-10-09T06:21:56.015Z,4.10
2022-10-09T06:22:57.930Z,3.70
2022-10-09T06:24:02.374Z,3.50
2022-10-09T06:25:04.540Z,3.60
2022-10-09T06:26:09.699Z,3.70
2022-10-09T06:27:13.190Z,3.20
2022-10-09T06:28:15.046Z,3.50
2022-10-09T06:29:16.918Z,3.60
2022-10-09T06:30:18.818Z,3.50
2022-10-09T06:31:23.221Z,3.50
2022-10-09T06:32:30.310Z,3.50
2022-10-09T06:33:37.702Z,3.30
2022-10-09T06:34:39.826Z,3.30
2022-10-09T06:35:43.828Z,3.20
2022-10-09T06:36:45.611Z,3.10
2022-10-09T06:37:47.492Z,3.40
2022-10-09T06:38:49.667Z,3.50
2022-10-09T06:39:51.381Z,3.50
2022-10-09T06:40:53.399Z,3.50
2022-10-09T06:41:55.175Z,4.00
2022-10-09T06:43:12.157Z,3.60
2022-10-09T06:44:16.973Z,3.70
2022-10-09T06:45:19.364Z,3.70
2022-10-09T06:46:23.886Z,3.50
2022-10-09T06:47:25.934Z,4.10
2022-10-09T06:48:31.499Z,3.80
2022-10-09T06:49:35.549Z,3.20
2022-10-09T06:50:40.024Z,3.60
2022-10-09T06:51:41.944Z,4.30
2022-10-09T06:52:43.751Z,3.90
2022-10-09T06:53:48.652Z,4.00
2022-10-09T06:54:50.469Z,4.20
2022-10-09T06:55:53.654Z,4.10
2022-10-09T06:56:55.535Z,3.60
2022-10-09T06:57:57.448Z,4.40
2022-10-09T06:59:01.183Z,4.00
2022-10-09T07:00:04.556Z,3.80
2022-10-09T07:01:10.332Z,3.30
2022-10-09T07:02:12.375Z,4.20
2022-10-09T07:03:14.861Z,4.20
2022-10-09T07:04:18.233Z,4.30
2022-10-09T07:05:20.172Z,3.90
2022-10-09T07:06:25.058Z,3.70
2022-10-09T07:07:27.884Z,4.40
2022-10-09T07:08:29.838Z,3.90
2022-10-09T07:09:37.736Z,3.90
2022-10-09T07:10:39.536Z,3.80
2022-10-09T07:11:48.440Z,4.10
2022-10-09T07:12:50.581Z,4.10
2022-10-09T07:13:54.818Z,4.40
2022-10-09T07:14:59.962Z,4.40
2022-10-09T07:16:04.861Z,3.90
2022-10-09T07:17:07.155Z,4.60
2022-10-09T07:18:09.055Z,4.10
2022-10-09T07:19:12.666Z,3.60
2022-10-09T07:20:15.855Z,4.10
2022-10-09T07:21:17.922Z,4.10
2022-10-09T07:22:23.579Z,3.70
2022-10-09T07:23:30.241Z,3.60
2022-10-09T07:24:32.198Z,3.50
2022-10-09T07:25:38.157Z,3.40
2022-10-09T07:26:44.367Z,3.60
2022-10-09T07:27:46.468Z,3.50
2022-10-09T07:28:49.431Z,3.40
2022-10-09T07:29:51.478Z,3.30
2022-10-09T07:30:53.551Z,3.20
2022-10-09T07:31:55.478Z,3.20
2022-10-09T07:32:59.547Z,3.30
2022-10-09T07:34:02.309Z,3.00
2022-10-09T07:35:05.366Z,3.10
2022-10-09T07:36:08.912Z,2.80
2022-10-09T07:37:10.718Z,2.80
2022-10-09T07:38:12.577Z,3.00
2022-10-09T07:39:15.443Z,2.90
2022-10-09T07:40:17.379Z,2.90
2022-10-09T07:41:20.550Z,3.00
2022-10-09T07:42:22.425Z,2.70
2022-10-09T07:43:24.327Z,2.60
2022-10-09T07:44:26.423Z,2.60
2022-10-09T07:45:28.239Z,2.60
2022-10-09T07:46:33.663Z,2.40
2022-10-09T07:47:36.181Z,2.40
2022-10-09T07:48:38.916Z,2.70
2022-10-09T07:49:40.776Z,2.50
2022-10-09T07:50:42.564Z,2.60
2022-10-09T07:51:44.862Z,2.40
2022-10-09T07:52:47.012Z,2.20
2022-10-09T07:53:49.382Z,2.10
2022-10-09T07:54:51.233Z,2.40
2022-10-09T07:55:53.121Z,2.30
2022-10-09T07:56:54.954Z,2.20
2022-10-09T07:58:00.910Z,2.20
2022-10-09T07:59:14.410Z,2.20
2022-10-09T08:00:19.078Z,2.30
2022-10-09T08:01:24.142Z,2.40
2022-10-09T08:02:30.778Z,2.40
2022-10-09T08:03:34.331Z,2.10
2022-10-09T08:04:36.991Z,2.00
2022-10-09T08:05:38.956Z,2.00
2022-10-09T08:06:43.169Z,2.20
2022-10-09T08:07:45.030Z,2.00
2022-10-09T08:08:53.897Z,1.80
2022-10-09T08:09:56.117Z,2.10
2022-10-09T08:10:58.344Z,2.10
2022-10-09T08:12:00.302Z,1.90
2022-10-09T08:13:02.293Z,2.00
2022-10-09T08:14:14.137Z,2.20
2022-10-09T08:15:18.853Z,2.00
2022-10-09T08:16:22.252Z,2.00
2022-10-09T08:17:24.082Z,2.10
2022-10-09T08:18:25.832Z,1.80
2022-10-09T08:19:27.976Z,2.00
2022-10-09T08:20:29.775Z,2.30
2022-10-09T08:21:32.390Z,2.10
2022-10-09T08:22:34.174Z,2.20
2022-10-09T08:23:36.230Z,2.10
2022-10-09T08:24:39.332Z,2.10
2022-10-09T08:25:42.456Z,2.10
2022-10-09T08:26:44.437Z,2.10
2022-10-09T08:27:46.217Z,1.90
2022-10-09T08:29:02.319Z,2.00
2022-10-09T08:30:04.642Z,2.00
2022-10-09T08:31:11.609Z,2.00
2022-10-09T08:32:13.653Z,2.10
2022-10-09T08:33:19.735Z,1.90
2022-10-09T08:34:21.697Z,2.10
2022-10-09T08:35:23.691Z,2.20
2022-10-09T08:36:26.081Z,1.90
2022-10-09T08:37:28.553Z,2.00
2022-10-09T08:38:46.746Z,2.10
2022-10-09T08:39:52.118Z,2.20
2022-10-09T08:41:02.696Z,2.30
2022-10-09T08:42:05.637Z,2.00
2022-10-09T08:43:14.687Z,2.10
2022-10-09T08:44:26.129Z,2.00
2022-10-09T08:45:28.133Z,1.90
2022-10-09T08:46:52.909Z,1.80
2022-10-09T08:48:00.698Z,2.00
2022-10-09T08:49:06.146Z,1.90
2022-10-09T08:50:18.161Z,2.00
2022-10-09T08:51:36.260Z,1.90
2022-10-09T08:52:45.748Z,2.10
2022-10-09T08:54:06.387Z,1.70
2022-10-09T08:55:27.909Z,1.90
2022-10-09T08:56:30.146Z,1.70
2022-10-09T08:57:33.826Z,1.70
2022-10-09T08:58:39.267Z,1.90
2022-10-09T08:59:42.184Z,1.90
2022-10-09T09:00:58.340Z,1.80
2022-10-09T09:02:09.105Z,1.80
2022-10-09T09:04:25.009Z,1.70
2022-10-09T09:06:45.278Z,1.80
2022-10-09T09:08:16.546Z,1.70
2022-10-09T09:09:30.207Z,1.80
2022-10-09T09:10:40.366Z,1.60
2022-10-09T09:11:57.807Z,1.70
2022-10-09T09:13:15.739Z,1.70
2022-10-09T09:14:43.288Z,1.90
2022-10-09T09:15:58.795Z,1.50
2022-10-09T09:17:08.083Z,1.70
2022-10-09T09:18:31.556Z,1.80
2022-10-09T09:20:03.570Z,1.80
2022-10-09T09:21:15.671Z,1.70
2022-10-09T09:22:17.562Z,1.60
2022-10-09T09:23:27.506Z,1.50
2022-10-09T09:24:41.929Z,1.80
2022-10-09T09:25:45.643Z,1.60
2022-10-09T09:26:51.500Z,1.60
2022-10-09T09:28:01.782Z,1.60
2022-10-09T09:29:04.725Z,1.70
2022-10-09T09:30:12.385Z,1.60
2022-10-09T09:31:36.691Z,1.40
2022-10-09T09:33:10.817Z,1.60
2022-10-09T09:34:21.314Z,1.70
2022-10-09T09:35:39.244Z,1.40
2022-10-09T09:37:00.289Z,1.60
2022-10-09T09:38:02.179Z,1.70
2022-10-09T09:40:36.636Z,1.60
2022-10-09T09:41:41.336Z,1.70
2022-10-09T09:42:43.590Z,1.70
2022-10-09T09:43:45.554Z,1.60
2022-10-09T09:44:55.710Z,1.70
2022-10-09T09:46:03.309Z,1.50
2022-10-09T09:47:15.093Z,1.70
2022-10-09T09:48:22.153Z,1.40
2022-10-09T09:49:27.164Z,1.60
2022-10-09T09:50:48.468Z,1.60
2022-10-09T09:51:53.953Z,1.40
2022-10-09T09:52:56.646Z,1.60
2022-10-09T09:54:06.843Z,1.60
2022-10-09T09:55:24.386Z,1.50
2022-10-09T09:58:15.976Z,1.40
2022-10-09T10:00:31.609Z,1.30
2022-10-09T10:01:34.382Z,1.40
2022-10-09T10:02:36.727Z,1.20
2022-10-09T10:03:49.542Z,1.50
2022-10-09T10:04:58.353Z,1.30
2022-10-09T10:06:00.685Z,1.60
2022-10-09T10:07:02.751Z,1.20
2022-10-09T10:08:26.196Z,1.30
2022-10-09T10:09:28.335Z,1.70
2022-10-09T10:10:30.376Z,1.20
2022-10-09T10:11:35.161Z,1.40
2022-10-09T10:12:46.113Z,1.00
2022-10-09T10:13:52.027Z,1.40
2022-10-09T10:14:53.924Z,1.30
2022-10-09T10:15:57.320Z,1.20
2022-10-09T10:17:00.608Z,1.20
2022-10-09T10:18:14.926Z,1.40
2022-10-09T10:19:24.230Z,1.30
2022-10-09T10:20:28.440Z,1.30
2022-10-09T10:21:40.281Z,1.20
2022-10-09T10:22:50.379Z,1.30
2022-10-09T10:25:04.597Z,1.20
2022-10-09T10:26:28.396Z,1.00
2022-10-09T10:27:34.784Z,1.10
2022-10-09T10:29:20.688Z,1.50
2022-10-09T10:30:22.879Z,1.60
2022-10-09T10:31:47.776Z,1.30
2022-10-09T10:33:05.023Z,1.10
2022-10-09T10:34:16.490Z,1.30
2022-10-09T10:37:43.921Z,1.10
2022-10-09T10:38:59.953Z,1.10
2022-10-09T10:40:21.753Z,1.20
2022-10-09T10:41:30.036Z,0.90
2022-10-09T10:42:58.635Z,1.10
2022-10-09T10:44:30.469Z,1.00
2022-10-09T10:45:56.437Z,1.10
2022-10-09T10:47:04.342Z,1.30
2022-10-09T10:48:12.764Z,1.20
2022-10-09T10:49:20.584Z,1.10
2022-10-09T10:50:28.813Z,1.20
2022-10-09T10:51:38.600Z,1.00
2022-10-09T10:52:40.343Z,1.10
2022-10-09T10:54:03.944Z,1.20
2022-10-09T10:55:15.173Z,1.10
2022-10-09T10:57:46.970Z,1.10
2022-10-09T10:59:18.752Z,1.00
2022-10-09T11:00:20.876Z,1.10
2022-10-09T11:02:10.788Z,1.10
2022-10-09T11:03:42.255Z,1.20
2022-10-09T11:04:49.732Z,1.00
2022-10-09T11:06:18.896Z,1.20
2022-10-09T11:07:48.464Z,1.30
2022-10-09T11:09:20.870Z,1.20
2022-10-09T11:10:55.951Z,1.20
2022-10-09T11:12:43.443Z,1.20
2022-10-09T11:13:53.023Z,1.10
2022-10-09T11:15:06.321Z,1.40
2022-10-09T11:16:35.446Z,1.30
2022-10-09T11:18:02.760Z,1.00
2022-10-09T11:19:30.824Z,1.20
2022-10-09T11:20:41.850Z,1.20
2022-10-09T11:22:02.326Z,1.10
2022-10-09T11:23:27.663Z,1.20
2022-10-09T11:24:58.991Z,1.00
2022-10-09T11:26:28.437Z,1.20
2022-10-09T11:27:39.483Z,1.30
2022-10-09T11:30:13.002Z,1.20
2022-10-09T11:31:47.055Z,1.10
2022-10-09T11:33:30.569Z,1.20
2022-10-09T11:34:39.062Z,1.20
2022-10-09T11:35:46.414Z,1.40
2022-10-09T11:36:48.267Z,1.60
2022-10-09T11:38:23.751Z,1.10
2022-10-09T11:39:30.357Z,1.20
2022-10-09T11:40:36.211Z,1.10
2022-10-09T11:41:38.558Z,1.20
2022-10-09T11:42:41.206Z,1.30
2022-10-09T11:43:49.054Z,1.10
2022-10-09T11:44:59.928Z,1.20
2022-10-09T11:46:26.754Z,1.30
2022-10-09T11:47:44.487Z,1.20
2022-10-09T11:48:59.338Z,1.20
2022-10-09T11:50:17.473Z,1.60
2022-10-09T11:51:34.458Z,1.30
2022-10-09T11:52:58.056Z,1.00
2022-10-09T11:54:05.122Z,1.00
2022-10-09T11:55:18.587Z,1.00
2022-10-09T11:56:22.194Z,1.10
2022-10-09T11:57:28.760Z,1.00
2022-10-09T11:58:30.687Z,1.20
2022-10-09T11:59:35.964Z,1.30
2022-10-09T12:00:37.876Z,1.00
2022-10-09T12:01:45.394Z,0.90
2022-10-09T12:02:59.392Z,1.10
2022-10-09T12:04:08.326Z,1.20
2022-10-09T12:05:35.046Z,1.00
2022-10-09T12:06:47.289Z,1.00
2022-10-09T12:07:49.201Z,1.20
2022-10-09T12:08:57.913Z,1.10
2022-10-09T12:10:20.762Z,1.10
2022-10-09T12:11:23.734Z,1.10
2022-10-09T12:12:25.915Z,1.10
2022-10-09T12:13:36.884Z,1.00
2022-10-09T12:14:38.734Z,1.00
2022-10-09T12:15:49.501Z,1.00
2022-10-09T12:16:51.907Z,0.90
2022-10-09T12:17:53.925Z,1.30
2022-10-09T12:18:57.998Z,1.40
2022-10-09T12:20:16.942Z,1.00
2022-10-09T12:21:25.920Z,1.50
2022-10-09T12:23:37.071Z,1.30
2022-10-09T12:24:44.124Z,1.20
2022-10-09T12:25:46.215Z,1.20
2022-10-09T12:26:50.432Z,1.20
2022-10-09T12:27:55.452Z,1.20
2022-10-09T12:29:02.450Z,1.30
2022-10-09T12:30:14.301Z,1.00
2022-10-09T12:31:38.645Z,1.10
2022-10-09T12:32:54.945Z,1.20
2022-10-09T12:34:12.500Z,0.90
2022-10-09T12:35:28.222Z,0.90
2022-10-09T12:36:33.605Z,1.20
2022-10-09T12:37:35.937Z,1.20
2022-10-09T12:38:38.047Z,1.00
2022-10-09T12:39:40.508Z,1.10
2022-10-09T12:40:46.274Z,1.20
2022-10-09T12:41:58.520Z,1.00
2022-10-09T12:43:15.955Z,1.20
2022-10-09T12:44:33.410Z,0.90
2022-10-09T12:45:43.345Z,1.10
2022-10-09T12:46:46.855Z,1.20
2022-10-09T12:48:04.405Z,1.10
2022-10-09T12:49:20.379Z,0.90
2022-10-09T12:50:25.661Z,1.00
2022-10-09T12:51:30.516Z,1.00
2022-10-09T12:52:32.447Z,1.00
2022-10-09T12:53:34.204Z,1.10
2022-10-09T12:54:44.440Z,1.30
2022-10-09T12:56:11.121Z,1.10
2022-10-09T12:57:15.968Z,1.20
2022-10-09T12:58:25.075Z,1.20
2022-10-09T12:59:28.883Z,1.00
2022-10-09T13:00:32.699Z,1.00
2022-10-09T13:01:35.393Z,1.20
2022-10-09T13:02:37.452Z,1.10
2022-10-09T13:03:43.238Z,1.10
2022-10-09T13:04:57.279Z,1.30
2022-10-09T13:06:00.002Z,1.20
2022-10-09T13:07:07.004Z,1.00
2022-10-09T13:08:27.686Z,1.20
2022-10-09T13:09:40.122Z,1.00
2022-10-09T13:10:42.035Z,1.10
2022-10-09T13:11:44.553Z,1.20
2022-10-09T13:12:55.330Z,1.10
2022-10-09T13:13:58.052Z,1.10
2022-10-09T13:15:26.646Z,0.90
2022-10-09T13:16:41.130Z,0.90
2022-10-09T13:17:43.043Z,1.20
2022-10-09T13:19:02.645Z,0.90
2022-10-09T13:20:23.726Z,1.10
2022-10-09T13:21:35.148Z,1.20
2022-10-09T13:22:38.421Z,0.90
2022-10-09T13:23:40.229Z,1.00
2022-10-09T13:24:42.481Z,1.00
2022-10-09T13:25:48.457Z,0.90
2022-10-09T13:26:50.211Z,0.90
2022-10-09T13:27:52.482Z,1.00
2022-10-09T13:28:56.640Z,1.10
2022-10-09T13:29:59.971Z,0.90
2022-10-09T13:31:08.218Z,0.90
2022-10-09T13:32:14.811Z,0.80
2022-10-09T13:33:16.752Z,1.00
2022-10-09T13:34:18.901Z,1.10
2022-10-09T13:35:20.979Z,0.90
2022-10-09T13:36:22.739Z,0.80
2022-10-09T13:37:25.933Z,0.80
2022-10-09T13:38:31.380Z,1.00
2022-10-09T13:39:36.094Z,0.80
2022-10-09T13:40:38.673Z,1.00
2022-10-09T13:41:42.466Z,1.00
2022-10-09T13:42:52.567Z,0.80
2022-10-09T13:43:54.545Z,1.00
2022-10-09T13:44:56.525Z,0.70
2022-10-09T13:45:58.760Z,1.00
2022-10-09T13:47:01.032Z,0.80
2022-10-09T13:48:02.909Z,0.80
2022-10-09T13:49:04.836Z,0.80
2022-10-09T13:50:07.199Z,0.90
2022-10-09T13:51:09.499Z,0.80
2022-10-09T13:52:11.491Z,0.80
2022-10-09T13:53:13.418Z,1.10
2022-10-09T13:54:15.420Z,0.70
2022-10-09T13:55:17.261Z,0.90
2022-10-09T13:56:19.222Z,0.80
2022-10-09T13:57:21.062Z,0.90
2022-10-09T13:58:25.873Z,0.80
2022-10-09T13:59:28.070Z,0.90
2022-10-09T14:00:29.859Z,0.70
2022-10-09T14:01:33.353Z,1.10
2022-10-09T14:02:35.257Z,0.90
2022-10-09T14:03:37.112Z,0.90
2022-10-09T14:04:39.448Z,0.70
2022-10-09T14:05:41.598Z,0.80
2022-10-09T14:06:43.895Z,0.80
2022-10-09T14:07:45.754Z,1.00
2022-10-09T14:08:48.788Z,1.00
2022-10-09T14:09:50.624Z,1.00
2022-10-09T14:10:52.715Z,0.80
2022-10-09T14:11:54.766Z,1.00
2022-10-09T14:12:56.811Z,1.00
2022-10-09T14:13:59.258Z,0.90
2022-10-09T14:15:01.077Z,0.90
2022-10-09T14:16:05.611Z,0.80
2022-10-09T14:17:07.632Z,0.90
2022-10-09T14:18:09.531Z,0.90
2022-10-09T14:19:11.361Z,1.00
2022-10-09T14:20:13.726Z,0.80
2022-10-09T14:21:15.872Z,1.00
2022-10-09T14:22:18.080Z,0.80
2022-10-09T14:23:19.856Z,0.90
2022-10-09T14:24:21.777Z,0.80
2022-10-09T14:25:23.778Z,0.80
2022-10-09T14:26:27.027Z,0.90
2022-10-09T14:27:29.300Z,0.70
2022-10-09T14:28:31.292Z,0.80
2022-10-09T14:29:33.067Z,0.70
2022-10-09T14:30:39.793Z,0.70
2022-10-09T14:31:42.136Z,1.00
2022-10-09T14:32:43.922Z,0.80
2022-10-09T14:33:47.674Z,0.90
2022-10-09T14:34:53.492Z,0.90
2022-10-09T14:35:55.191Z,0.80
2022-10-09T14:36:57.053Z,0.80
2022-10-09T14:37:59.141Z,0.90
2022-10-09T14:39:00.909Z,0.80
2022-10-09T14:40:03.506Z,0.90
2022-10-09T14:41:06.194Z,0.90
2022-10-09T14:42:08.174Z,0.90
2022-10-09T14:43:11.128Z,0.90
2022-10-09T14:44:13.063Z,1.00
2022-10-09T14:45:15.135Z,0.80
2022-10-09T14:46:17.844Z,0.90
2022-10-09T14:47:20.038Z,0.80
2022-10-09T14:48:22.007Z,0.90
2022-10-09T14:49:23.789Z,0.90
2022-10-09T14:50:26.069Z,0.90
2022-10-09T14:51:28.196Z,0.90
2022-10-09T14:52:30.046Z,1.00
2022-10-09T14:53:32.577Z,0.90
2022-10-09T14:54:34.604Z,0.80
2022-10-09T14:55:36.356Z,1.00
2022-10-09T14:56:38.153Z,1.00
2022-10-09T14:57:40.107Z,1.00
2022-10-09T14:58:42.540Z,0.90
2022-10-09T14:59:44.341Z,0.80
2022-10-09T15:00:47.131Z,1.10